Time;durP1;ratioP1;P1;durP2;ratioP2;P2;SDS_P1;SDS_P2;PMS_P1;PMS_P2;Temp;Humidity;BMP_temperature;BMP_pressure;BME280_temperature;BME280_humidity;BME280_pressure;Samples;Min_cycle;Max_cycle;Signal;HPM_P1;HPM_P2
2023/08/06 00:00:35;;;;;;;3.55;2.70;;;;;;;15.00;100.00;100305.38;5031773;28;20771;-71
2023/08/06 00:03:01;;;;;;;4.93;2.90;;;;;;;14.98;100.00;100302.13;5031659;28;20484;-71
2023/08/06 00:05:26;;;;;;;6.55;3.05;;;;;;;15.00;100.00;100301.88;5031718;28;20477;-71
2023/08/06 00:07:51;;;;;;;6.03;3.22;;;;;;;14.96;100.00;100298.03;5031684;28;20076;-71
2023/08/06 00:10:17;;;;;;;6.32;3.08;;;;;;;14.99;100.00;100306.44;5031247;28;20034;-71
2023/08/06 00:12:46;;;;;;;5.13;3.13;;;;;;;14.91;100.00;100290.72;5031554;28;20120;-71
2023/08/06 00:15:11;;;;;;;7.30;2.85;;;;;;;15.00;100.00;100309.94;5031631;28;20064;-71
2023/08/06 00:17:38;;;;;;;4.07;2.58;;;;;;;15.00;100.00;100297.31;5031381;28;20099;-71
2023/08/06 00:20:05;;;;;;;6.32;3.45;;;;;;;14.98;100.00;100288.69;5030033;28;20027;-71
2023/08/06 00:22:36;;;;;;;4.97;3.17;;;;;;;15.00;100.00;100300.00;5031278;28;20084;-71
2023/08/06 00:25:03;;;;;;;6.78;2.88;;;;;;;14.97;100.00;100291.63;5031430;28;20124;-71
2023/08/06 00:27:28;;;;;;;6.78;2.88;;;;;;;14.93;100.00;100285.91;5031303;28;20036;-71
2023/08/06 00:29:54;;;;;;;5.82;3.28;;;;;;;14.95;100.00;100291.06;5031292;28;20018;-71
2023/08/06 00:32:19;;;;;;;6.25;3.30;;;;;;;14.95;100.00;100291.06;5031143;28;20072;-71
2023/08/06 00:34:44;;;;;;;4.25;2.63;;;;;;;14.92;100.00;100288.84;5031160;28;20435;-71
2023/08/06 00:37:10;;;;;;;4.50;3.03;;;;;;;14.95;100.00;100283.81;5046494;28;20034;-71
2023/08/06 00:39:35;;;;;;;6.13;3.38;;;;;;;14.92;100.00;100280.78;5031072;28;20035;-71
2023/08/06 00:42:00;;;;;;;4.40;2.92;;;;;;;14.93;100.00;100283.22;5031133;28;20036;-71
2023/08/06 00:44:26;;;;;;;5.43;2.65;;;;;;;14.90;100.00;100281.03;5046200;28;20123;-71
2023/08/06 00:46:51;;;;;;;4.45;2.60;;;;;;;14.92;100.00;100280.78;5031386;28;20455;-71
2023/08/06 00:49:17;;;;;;;6.63;3.47;;;;;;;14.93;100.00;100277.84;5046319;28;20452;-71
2023/08/06 00:51:43;;;;;;;5.78;3.03;;;;;;;14.92;100.00;100275.41;5030795;28;20417;-71
2023/08/06 00:54:09;;;;;;;5.15;3.15;;;;;;;14.93;100.00;100275.16;5029597;28;20033;-71
2023/08/06 00:56:35;;;;;;;3.55;2.35;;;;;;;14.92;100.00;100278.09;5046124;28;20746;-71
2023/08/06 00:59:01;;;;;;;5.53;3.50;;;;;;;14.93;100.00;100282.41;5045726;28;20032;-71
2023/08/06 01:01:26;;;;;;;6.05;3.28;;;;;;;14.92;100.00;100272.75;5030538;28;20030;-71
2023/08/06 01:03:53;;;;;;;4.82;2.88;;;;;;;14.93;100.00;100279.72;5030599;28;20440;-71
2023/08/06 01:06:33;;;;;;;6.30;2.97;;;;;;;14.88;100.00;100278.59;5030318;28;20033;-71
2023/08/06 01:09:06;;;;;;;10.60;3.78;;;;;;;14.93;100.00;100277.03;5030378;28;20025;-71
2023/08/06 01:11:37;;;;;;;5.32;2.75;;;;;;;14.92;100.00;100270.06;5030514;28;20025;-71
2023/08/06 01:14:08;;;;;;;;;;;;;;;14.99;100.00;100281.47;5030844;28;20037;-71
2023/08/06 01:16:33;;;;;;;4.82;2.80;;;;;;;14.92;100.00;100281.59;5030368;28;20358;-71
2023/08/06 01:18:58;;;;;;;3.63;2.53;;;;;;;14.91;100.00;100271.94;5030068;28;20037;-71
2023/08/06 01:21:24;;;;;;;3.83;2.63;;;;;;;14.91;100.00;100279.97;5030001;28;20464;-71
2023/08/06 01:23:50;;;;;;;8.57;3.05;;;;;;;14.90;100.00;100276.47;5030171;28;20104;-71
2023/08/06 01:26:23;;;;;;;7.00;3.10;;;;;;;14.88;100.00;100273.22;5030490;28;20040;-71
2023/08/06 01:28:59;;;;;;;4.57;3.15;;;;;;;14.88;100.00;100280.44;5029821;28;20096;-71
2023/08/06 01:31:30;;;;;;;7.07;3.67;;;;;;;14.88;100.00;100278.59;5029991;28;20056;-71
2023/08/06 01:33:57;;;;;;;7.13;3.03;;;;;;;14.88;100.00;100273.22;5030236;28;20104;-71
2023/08/06 01:36:23;;;;;;;5.13;3.25;;;;;;;14.90;100.00;100279.16;5029730;28;20033;-71
2023/08/06 01:38:51;;;;;;;6.55;3.50;;;;;;;14.90;100.00;100270.28;5029721;28;20034;-71
2023/08/06 01:41:17;;;;;;;7.43;3.28;;;;;;;14.92;100.00;100280.78;5045223;28;20033;-71
2023/08/06 01:43:42;;;;;;;4.32;2.83;;;;;;;14.88;100.00;100277.75;5029795;28;20395;-71
2023/08/06 01:46:07;;;;;;;7.95;3.75;;;;;;;14.88;100.00;100275.91;5044895;28;20049;-71
2023/08/06 01:48:33;;;;;;;5.10;2.85;;;;;;;14.87;100.00;100274.25;5030065;28;20025;-71
2023/08/06 01:50:58;;;;;;;4.10;2.70;;;;;;;14.87;100.00;100268.88;5029658;28;20437;-71
2023/08/06 01:53:23;;;;;;;5.70;3.28;;;;;;;14.88;100.00;100269.69;5029677;28;20030;-71
2023/08/06 01:55:49;;;;;;;5.25;3.30;;;;;;;14.81;100.00;100264.47;5029531;28;20373;-71
2023/08/06 01:58:15;;;;;;;5.78;3.35;;;;;;;14.85;100.00;100270.19;5029572;28;20033;-71
2023/08/06 02:00:40;;;;;;;5.15;3.17;;;;;;;14.85;100.00;100270.19;5029558;28;20052;-71
2023/08/06 02:03:06;;;;;;;9.82;3.72;;;;;;;14.84;100.00;100269.38;5029641;28;20033;-71
2023/08/06 02:05:31;;;;;;;6.18;2.55;;;;;;;14.85;100.00;100275.53;5027659;28;20124;-71
2023/08/06 02:07:57;;;;;;;5.30;2.38;;;;;;;14.83;100.00;100265.06;5028128;28;20087;-71
2023/08/06 02:10:22;;;;;;;6.78;3.90;;;;;;;14.86;100.00;100275.31;5029648;28;20116;-71
2023/08/06 02:12:47;;;;;;;6.38;3.63;;;;;;;14.87;100.00;100271.56;5029593;28;20357;-71
2023/08/06 02:15:13;;;;;;;5.75;3.17;;;;;;;14.87;100.00;100276.94;5027938;28;20035;-71
2023/08/06 02:17:38;;;;;;;6.60;4.07;;;;;;;14.88;100.00;100275.91;5029368;28;20542;-71
2023/08/06 02:20:04;;;;;;;4.45;3.28;;;;;;;14.83;100.00;100269.63;5029102;28;20404;-71
2023/08/06 02:22:30;;;;;;;4.30;3.03;;;;;;;14.89;100.00;100274.03;5028846;28;20061;-71
2023/08/06 02:24:55;;;;;;;6.78;3.15;;;;;;;14.88;100.00;100272.38;5029212;28;20041;-71
2023/08/06 02:27:20;;;;;;;5.10;3.10;;;;;;;14.88;100.00;100267.84;5028996;28;20033;-71
2023/08/06 02:29:46;;;;;;;5.07;3.22;;;;;;;14.86;100.00;100271.81;5029112;28;20112;-71
2023/08/06 02:32:11;;;;;;;4.90;3.05;;;;;;;14.86;100.00;100266.47;5028989;28;20037;-71
2023/08/06 02:34:37;;;;;;;4.78;2.83;;;;;;;14.89;100.00;100269.47;5029043;28;20095;-71
2023/08/06 02:37:02;;;;;;;5.13;2.60;;;;;;;14.89;100.00;100263.28;5044322;28;20538;-71
2023/08/06 02:39:27;;;;;;;6.50;2.97;;;;;;;14.88;100.00;100257.13;5027577;28;20480;-71
2023/08/06 02:41:53;;;;;;;10.13;4.05;;;;;;;14.83;100.00;100245.47;5028953;28;20029;-71
2023/08/06 02:44:18;;;;;;;4.85;2.80;;;;;;;14.88;100.00;100251.75;5028971;28;20564;-71
2023/08/06 02:46:44;;;;;;;6.82;3.67;;;;;;;14.88;100.00;100257.13;5029070;28;20566;-71
2023/08/06 02:49:10;;;;;;;5.78;3.05;;;;;;;14.89;100.00;100252.53;5028847;28;20029;-71
2023/08/06 02:51:35;;;;;;;7.35;3.08;;;;;;;14.89;100.00;100244.50;5028849;28;20469;-71
2023/08/06 02:54:01;;;;;;;3.88;3.03;;;;;;;14.89;100.00;100257.91;5028874;28;20129;-71
2023/08/06 02:56:26;;;;;;;4.70;2.88;;;;;;;14.90;100.00;100249.59;5028874;28;20036;-71
2023/08/06 02:58:51;;;;;;;6.00;2.90;;;;;;;14.90;100.00;100254.97;5028628;28;20111;-72
2023/08/06 03:01:17;;;;;;;5.10;3.08;;;;;;;14.88;100.00;100250.91;5028783;28;20543;-71
2023/08/06 03:03:42;;;;;;;5.65;2.75;;;;;;;14.89;100.00;100241.81;5028808;28;20119;-71
2023/08/06 03:06:07;;;;;;;3.92;2.45;;;;;;;14.90;100.00;100248.78;5028847;28;20095;-71
2023/08/06 03:08:33;;;;;;;5.07;3.03;;;;;;;14.88;100.00;100243.69;5028711;28;20473;-71
2023/08/06 03:10:58;;;;;;;9.10;3.65;;;;;;;14.90;100.00;100249.59;5028677;28;20036;-71
2023/08/06 03:13:23;;;;;;;7.10;3.40;;;;;;;14.88;100.00;100248.22;5027417;28;20030;-72
2023/08/06 03:16:07;;;;;;;5.45;3.63;;;;;;;14.90;100.00;100249.59;5028605;28;20056;-71
2023/08/06 03:18:32;;;;;;;7.30;2.97;;;;;;;14.87;100.00;100243.91;5032643;28;20124;-72
2023/08/06 03:20:58;;;;;;;7.13;3.08;;;;;;;14.89;100.00;100242.63;5032291;28;20131;-71
2023/08/06 03:23:23;;;;;;;7.82;3.13;;;;;;;14.88;100.00;100240.16;5032488;28;20056;-71
2023/08/06 03:25:48;;;;;;;4.13;2.83;;;;;;;14.87;100.00;100251.97;5032338;28;20034;-71
2023/08/06 03:28:14;;;;;;;5.50;2.92;;;;;;;14.88;100.00;100243.69;5032399;28;20091;-71
2023/08/06 03:30:39;;;;;;;7.40;3.88;;;;;;;14.85;100.00;100251.38;5032419;28;20021;-71
2023/08/06 03:33:05;;;;;;;7.70;3.90;;;;;;;14.86;100.00;100240.41;5032376;28;20113;-71
2023/08/06 03:35:30;;;;;;;3.80;2.20;;;;;;;14.85;100.00;100252.19;5032178;28;20688;-71
2023/08/06 03:37:55;;;;;;;4.95;2.85;;;;;;;14.85;100.00;100244.13;5032334;28;20065;-71
2023/08/06 03:40:21;;;;;;;4.10;2.80;;;;;;;14.86;100.00;100253.84;5032354;28;20060;-71
2023/08/06 03:42:46;;;;;;;5.00;3.33;;;;;;;14.82;100.00;100249.19;5032244;28;20025;-71
2023/08/06 03:45:11;;;;;;;6.15;4.00;;;;;;;14.77;100.00;100243.72;5032123;28;20029;-71
2023/08/06 03:47:37;;;;;;;7.93;3.30;;;;;;;14.82;100.00;100255.38;5047359;28;20156;-71
2023/08/06 03:50:02;;;;;;;4.93;2.90;;;;;;;14.66;100.00;100232.78;5031916;28;20068;-71
2023/08/06 03:52:28;;;;;;;5.68;3.10;;;;;;;14.79;100.00;100263.09;5031831;28;20037;-71
2023/08/06 03:54:53;;;;;;;6.22;3.53;;;;;;;14.81;100.00;100252.94;5031705;28;20084;-71
2023/08/06 03:57:18;;;;;;;6.22;3.20;;;;;;;14.80;100.00;100257.50;5030561;28;20040;-71
2023/08/06 03:59:44;;;;;;;6.45;3.08;;;;;;;14.79;100.00;100255.84;5031601;28;20492;-71
2023/08/06 04:02:09;;;;;;;4.95;3.17;;;;;;;14.78;100.00;100254.22;5030383;28;20401;-71
2023/08/06 04:04:34;;;;;;;4.00;2.90;;;;;;;14.77;100.00;100251.78;5031806;28;20427;-71
2023/08/06 04:07:00;;;;;;;8.45;3.50;;;;;;;14.80;100.00;100253.97;5030420;28;20037;-71
2023/08/06 04:09:27;;;;;;;4.45;2.55;;;;;;;14.79;100.00;100250.47;5031495;28;20068;-71
2023/08/06 04:11:53;;;;;;;4.78;2.58;;;;;;;14.78;100.00;100251.53;5030545;28;20064;-71
2023/08/06 04:14:18;;;;;;;6.28;3.30;;;;;;;14.77;100.00;100255.25;5031058;28;20045;-71
2023/08/06 04:16:43;;;;;;;5.93;2.97;;;;;;;14.74;100.00;100253.06;5030006;28;20128;-71
2023/08/06 04:19:09;;;;;;;7.70;3.20;;;;;;;14.72;100.00;100247.09;5046500;28;20502;-71
2023/08/06 04:21:35;;;;;;;6.28;2.80;;;;;;;14.72;100.00;100263.22;5030907;28;20072;-71
2023/08/06 04:24:00;;;;;;;6.00;3.20;;;;;;;14.67;100.00;100255.91;5031337;28;20072;-71
2023/08/06 04:26:26;;;;;;;5.40;3.13;;;;;;;14.69;100.00;100261.81;5046220;28;20041;-71
2023/08/06 04:28:51;;;;;;;4.85;3.20;;;;;;;14.70;100.00;100273.41;5030697;28;20028;-71
2023/08/06 04:31:16;;;;;;;5.03;2.85;;;;;;;14.68;100.00;100279.00;5029990;28;20036;-71
2023/08/06 04:33:42;;;;;;;5.35;2.70;;;;;;;14.68;100.00;100265.56;5030866;28;20139;-71
2023/08/06 04:36:08;;;;;;;5.90;3.20;;;;;;;14.70;100.00;100273.41;5046214;28;20033;-71
2023/08/06 04:38:33;;;;;;;5.05;3.25;;;;;;;14.65;100.00;100265.25;5030703;28;20496;-71
2023/08/06 04:40:58;;;;;;;5.45;2.80;;;;;;;14.71;100.00;100264.28;5030402;28;20543;-71
2023/08/06 04:43:24;;;;;;;5.13;2.80;;;;;;;14.69;100.00;100271.75;5030835;28;20175;-71
2023/08/06 04:45:51;;;;;;;6.60;3.38;;;;;;;14.71;100.00;100271.53;5030958;28;20029;-71
2023/08/06 04:48:16;;;;;;;4.90;2.92;;;;;;;14.71;100.00;100261.59;5030683;28;20039;-71
2023/08/06 04:50:46;;;;;;;6.95;3.25;;;;;;;14.67;100.00;100271.16;5030766;28;20029;-71
2023/08/06 04:53:11;;;;;;;5.47;2.72;;;;;;;14.66;100.00;100275.72;5030476;28;20159;-71
2023/08/06 04:55:36;;;;;;;7.78;3.65;;;;;;;14.67;100.00;100277.38;5030684;28;20496;-71
2023/08/06 04:58:02;;;;;;;5.53;3.50;;;;;;;14.66;100.00;100286.47;5030378;28;20025;-71
2023/08/06 05:00:27;;;;;;;5.35;3.47;;;;;;;14.65;100.00;100284.03;5029112;28;20536;-71
2023/08/06 05:02:53;;;;;;;7.00;3.33;;;;;;;14.70;100.00;100281.44;5029232;28;20067;-71
2023/08/06 05:05:18;;;;;;;5.43;3.33;;;;;;;14.73;100.00;100289.03;5030612;28;20476;-71
2023/08/06 05:07:44;;;;;;;7.10;2.70;;;;;;;14.74;100.00;100287.97;5030709;28;20076;-71
2023/08/06 05:10:10;;;;;;;8.68;3.47;;;;;;;14.75;100.00;100291.44;5029068;28;20060;-71
2023/08/06 05:12:35;;;;;;;6.20;2.90;;;;;;;14.84;100.00;100292.72;5030738;28;20072;-71
2023/08/06 05:15:00;;;;;;;6.82;3.40;;;;;;;14.89;100.00;100298.19;5030319;28;20029;-71
2023/08/06 05:17:26;;;;;;;6.97;3.20;;;;;;;14.93;100.00;100301.22;5030524;28;20094;-71
2023/08/06 05:19:52;;;;;;;6.50;3.47;;;;;;;15.01;100.00;100301.66;5028800;28;20033;-71
2023/08/06 05:22:17;;;;;;;5.97;3.03;;;;;;;15.09;100.00;100300.44;5030008;28;20049;-71
2023/08/06 05:24:42;;;;;;;6.30;2.92;;;;;;;15.16;100.00;100308.38;5028771;28;20075;-71
2023/08/06 05:27:08;;;;;;;5.90;3.53;;;;;;;15.15;100.00;100302.19;5045554;28;20475;-71
2023/08/06 05:29:33;;;;;;;9.45;2.95;;;;;;;15.24;100.00;100307.97;5030351;28;20035;-71
2023/08/06 05:31:58;;;;;;;6.45;3.03;;;;;;;15.27;100.00;100308.31;5029259;28;20112;-71
2023/08/06 05:34:24;;;;;;;4.85;2.90;;;;;;;15.33;100.00;100309.22;5045328;28;20032;-71
2023/08/06 05:36:50;;;;;;;7.82;3.72;;;;;;;15.38;100.00;100317.38;5030102;28;20041;-71
2023/08/06 05:39:15;;;;;;;6.82;3.85;;;;;;;15.45;100.00;100317.22;5029536;28;20046;-71
2023/08/06 05:41:40;;;;;;;5.88;3.30;;;;;;;15.51;100.00;100321.63;5029912;28;20033;-71
2023/08/06 05:44:06;;;;;;;5.35;2.45;;;;;;;15.54;100.00;100323.84;5028755;28;20051;-71
2023/08/06 05:46:31;;;;;;;4.63;2.47;;;;;;;15.56;100.00;100332.44;5030020;28;20442;-71
2023/08/06 05:48:56;;;;;;;6.47;2.40;;;;;;;15.57;100.00;100331.41;5029919;28;20021;-71
2023/08/06 05:51:22;;;;;;;5.05;2.72;;;;;;;15.58;100.00;100335.72;5029626;28;20033;-71
2023/08/06 05:53:50;;;;;;;9.30;4.00;;;;;;;15.61;100.00;100337.91;5044883;28;20033;-71
2023/08/06 05:56:15;;;;;;;8.25;5.43;;;;;;;15.62;100.00;100339.56;5029801;28;20073;-71
2023/08/06 05:58:41;;;;;;;10.20;4.70;;;;;;;15.65;100.00;100339.09;5029475;28;20088;-71
2023/08/06 06:01:06;;;;;;;9.38;4.75;;;;;;;15.70;100.00;100341.06;5028087;28;20049;-71
2023/08/06 06:03:31;;;;;;;9.27;5.25;;;;;;;15.74;100.00;100343.00;5029520;28;20128;-71
2023/08/06 06:05:57;;;;;;;12.10;6.22;;;;;;;15.75;100.00;100347.34;5029447;28;20443;-71
2023/08/06 06:08:23;;;;;;;12.65;6.72;;;;;;;15.82;100.00;100351.75;5044490;28;20120;-71
2023/08/06 06:10:48;;;;;;;10.95;6.30;;;;;;;15.84;100.00;100360.38;5029625;28;20128;-71
2023/08/06 06:13:13;;;;;;;11.30;6.80;;;;;;;15.83;100.00;100351.50;5044678;28;20087;-71
2023/08/06 06:15:39;;;;;;;13.32;8.15;;;;;;;15.89;100.00;100363.16;5044684;28;20041;-71
2023/08/06 06:18:04;;;;;;;10.50;6.32;;;;;;;15.89;100.00;100374.72;5029333;28;20072;-71
2023/08/06 06:20:32;;;;;;;13.30;7.82;;;;;;;15.92;100.00;100378.81;5029264;28;20061;-71
2023/08/06 06:22:57;;;;;;;17.15;7.95;;;;;;;15.90;100.00;100376.38;5028962;28;20629;-71
2023/08/06 06:25:22;;;;;;;14.95;7.82;;;;;;;15.91;100.00;100377.19;5029503;28;20061;-71
2023/08/06 06:27:48;;;;;;;14.00;8.02;;;;;;;15.89;100.00;100387.38;5029208;28;20029;-71
2023/08/06 06:30:14;;;;;;;16.48;8.27;;;;;;;15.86;100.00;100377.91;5028829;28;20040;-71
2023/08/06 06:32:40;;;;;;;14.73;8.05;;;;;;;15.83;100.00;100380.28;5029120;28;20030;-71
2023/08/06 06:35:06;;;;;;;11.05;6.82;;;;;;;15.84;100.00;100392.66;5044152;28;20057;-71
2023/08/06 06:37:31;;;;;;;14.32;7.75;;;;;;;15.85;100.00;100395.13;5029320;28;20063;-71
2023/08/06 06:39:56;;;;;;;11.68;7.38;;;;;;;15.85;100.00;100396.97;5029005;28;20152;-71
2023/08/06 06:42:22;;;;;;;14.20;6.65;;;;;;;15.90;100.00;100399.75;5044294;28;20504;-71
2023/08/06 06:44:48;;;;;;;11.63;7.00;;;;;;;15.91;100.00;100404.09;5029029;28;20036;-71
2023/08/06 06:47:13;;;;;;;12.63;6.18;;;;;;;15.86;100.00;100398.63;5029013;28;20108;-72
2023/08/06 06:49:39;;;;;;;12.95;6.47;;;;;;;15.86;100.00;100409.38;5028974;28;20116;-71
2023/08/06 06:52:05;;;;;;;13.68;6.32;;;;;;;15.84;100.00;100409.59;5030526;28;20120;-71
2023/08/06 06:54:30;;;;;;;11.68;6.85;;;;;;;15.87;100.00;100408.31;5048184;28;20072;-71
2023/08/06 06:56:55;;;;;;;16.33;6.80;;;;;;;15.85;100.00;100403.19;5048514;28;20388;-71
2023/08/06 06:59:21;;;;;;;14.93;6.55;;;;;;;15.82;100.00;100405.53;5032988;28;20091;-71
2023/08/06 07:01:46;;;;;;;14.32;7.72;;;;;;;15.86;100.00;100417.44;5033052;28;20036;-71
2023/08/06 07:04:11;;;;;;;13.20;6.28;;;;;;;15.83;100.00;100409.88;5032983;28;20523;-71
2023/08/06 07:06:37;;;;;;;14.20;7.07;;;;;;;15.86;100.00;100417.44;5048817;28;20061;-76
2023/08/06 07:09:02;;;;;;;12.75;6.22;;;;;;;15.88;100.00;100418.84;5033010;28;20026;-71
2023/08/06 07:11:28;;;;;;;9.70;5.72;;;;;;;15.88;100.00;100413.44;5032873;28;20037;-71
2023/08/06 07:14:00;;;;;;;12.70;6.50;;;;;;;15.89;100.00;100414.25;5032679;28;20110;-72
2023/08/06 07:16:26;;;;;;;11.23;6.15;;;;;;;15.96;100.00;100415.75;5032583;28;20037;-71
2023/08/06 07:18:52;;;;;;;12.13;6.22;;;;;;;16.00;100.00;100422.25;5032561;28;20079;-72
2023/08/06 07:21:18;;;;;;;13.52;7.28;;;;;;;16.04;100.00;100422.59;5032771;28;20048;-71
2023/08/06 07:23:43;;;;;;;13.70;7.05;;;;;;;16.09;100.00;100425.38;5032427;28;20065;-71
2023/08/06 07:26:09;;;;;;;15.57;8.68;;;;;;;16.13;100.00;100426.50;5032624;28;20064;-71
2023/08/06 07:28:34;;;;;;;12.73;7.25;;;;;;;16.14;100.00;100438.09;5032496;28;20079;-71
2023/08/06 07:31:00;;;;;;;16.20;7.97;;;;;;;16.18;100.00;100440.03;5032395;28;20035;-71
2023/08/06 07:33:25;;;;;;;11.02;6.53;;;;;;;16.18;100.00;100436.53;5032697;28;20075;-71
2023/08/06 07:35:51;;;;;;;15.18;6.65;;;;;;;16.23;100.00;100442.00;5030845;28;20132;-72
2023/08/06 07:38:16;;;;;;;12.10;7.10;;;;;;;16.25;100.00;100447.97;5032240;28;20040;-71
2023/08/06 07:40:42;;;;;;;13.57;7.55;;;;;;;16.26;100.00;100440.72;5032185;28;20120;-72
2023/08/06 07:43:07;;;;;;;14.32;7.72;;;;;;;16.29;100.00;100446.41;5032238;28;20037;-72
2023/08/06 07:45:37;;;;;;;14.73;7.32;;;;;;;16.31;100.00;100446.19;5031943;28;20055;-73
2023/08/06 07:48:03;;;;;;;13.02;6.90;;;;;;;16.32;100.00;100442.41;5032721;28;20072;-73
2023/08/06 07:50:28;;;;;;;15.52;8.25;;;;;;;16.35;100.00;100448.13;5033680;28;20033;-73
2023/08/06 07:52:53;;;;;;;16.83;7.63;;;;;;;16.41;100.00;100454.41;5033360;28;20033;-72
2023/08/06 07:55:19;;;;;;;14.27;7.53;;;;;;;16.43;100.00;100457.69;5032062;28;20033;-73
2023/08/06 07:57:44;;;;;;;12.90;7.20;;;;;;;16.41;100.00;100449.03;5031669;28;20064;-72
2023/08/06 08:00:10;;;;;;;12.45;7.07;;;;;;;16.33;100.00;100452.94;5030707;28;20033;-72
2023/08/06 08:02:35;;;;;;;9.82;4.00;;;;;;;16.10;100.00;100451.22;5045505;28;20038;-72
2023/08/06 08:05:01;;;;;;;3.58;1.92;;;;;;;15.88;100.00;100464.56;5031422;28;20033;-72
2023/08/06 08:07:28;;;;;;;3.65;1.73;;;;;;;15.66;100.00;100463.56;5046996;28;20485;-72
2023/08/06 08:09:54;;;;;;;1.65;1.30;;;;;;;15.49;100.00;100461.63;5031575;28;20025;-72
2023/08/06 08:12:19;;;;;;;1.08;0.98;;;;;;;15.30;100.00;100462.84;5031554;28;20047;-72
2023/08/06 08:14:45;;;;;;;4.03;1.52;;;;;;;15.07;100.00;100477.97;5031294;28;20034;-72
2023/08/06 08:17:11;;;;;;;3.45;2.13;;;;;;;14.69;100.00;100481.94;5031816;28;20500;-72
2023/08/06 08:19:37;;;;;;;2.50;1.95;;;;;;;14.45;100.00;100489.13;5030892;28;20033;-72
2023/08/06 08:22:03;;;;;;;3.95;2.22;;;;;;;14.24;100.00;100485.09;5031340;28;20060;-71
2023/08/06 08:24:30;;;;;;;3.95;1.63;;;;;;;14.10;100.00;100494.41;5031583;28;20469;-71
2023/08/06 08:26:55;;;;;;;2.08;1.73;;;;;;;13.96;100.00;100495.63;5030302;28;20392;-72
2023/08/06 08:29:21;;;;;;;4.25;2.22;;;;;;;13.88;100.00;100496.78;5031509;28;20025;-71
2023/08/06 08:31:49;;;;;;;3.70;2.42;;;;;;;13.83;100.00;100502.00;5031054;28;20144;-71
2023/08/06 08:34:15;;;;;;;2.42;2.15;;;;;;;13.81;100.00;100514.81;5031526;28;20025;-71
2023/08/06 08:36:40;;;;;;;3.58;2.47;;;;;;;13.81;100.00;100504.91;5031353;28;20041;-71
2023/08/06 08:39:06;;;;;;;4.22;2.40;;;;;;;13.83;100.00;100512.72;5031128;28;20403;-72
2023/08/06 08:41:32;;;;;;;6.00;3.47;;;;;;;13.82;100.00;100514.59;5031015;28;20061;-74
2023/08/06 08:44:00;;;;;;;6.93;4.07;;;;;;;13.83;100.00;100510.03;5029463;28;20029;-72
2023/08/06 08:46:36;;;;;;;8.02;4.22;;;;;;;13.83;100.00;100515.41;5030158;28;20069;-71
2023/08/06 08:49:02;;;;;;;8.45;3.58;;;;;;;13.79;100.00;100520.41;5030940;28;20030;-70
2023/08/06 08:51:28;;;;;;;8.90;4.15;;;;;;;13.80;100.00;100527.38;5045515;28;20033;-71
2023/08/06 08:53:57;;;;;;;5.60;3.05;;;;;;;13.79;100.00;100524.94;5030169;28;20057;-71
2023/08/06 08:56:23;;;;;;;7.85;3.35;;;;;;;13.73;100.00;100523.19;5030430;28;20048;-71
2023/08/06 08:58:49;;;;;;;11.73;4.03;;;;;;;13.72;100.00;100522.34;5029968;28;20026;-71
2023/08/06 09:01:15;;;;;;;4.57;2.97;;;;;;;13.72;100.00;100533.06;5030609;28;20033;-71
2023/08/06 09:03:43;;;;;;;8.18;3.15;;;;;;;13.72;100.00;100538.41;5030668;28;20034;-71
2023/08/06 09:06:11;;;;;;;7.00;2.80;;;;;;;13.60;100.00;100526.84;5030338;28;20116;-71
2023/08/06 09:08:41;;;;;;;4.78;2.80;;;;;;;13.67;100.00;100532.09;5030143;28;20017;-71
2023/08/06 09:11:09;;;;;;;5.45;2.97;;;;;;;13.74;100.00;100544.38;5030675;28;20479;-71
2023/08/06 09:13:37;;;;;;;6.00;2.97;;;;;;;13.70;100.00;100540.53;5030374;28;20021;-71
2023/08/06 09:16:02;;;;;;;5.70;2.40;;;;;;;13.72;100.00;100548.31;5030021;28;20037;-71
2023/08/06 09:18:29;;;;;;;5.75;2.42;;;;;;;13.73;100.00;100544.63;5030429;28;20035;-71
2023/08/06 09:20:56;;;;;;;7.65;2.60;;;;;;;13.73;100.00;100548.13;5030464;28;20071;-71
2023/08/06 09:23:28;;;;;;;5.10;2.40;;;;;;;13.72;100.00;100556.38;5022676;28;20135;-71
2023/08/06 09:25:53;;;;;;;5.43;2.35;;;;;;;13.74;100.00;100559.66;5024136;28;20022;-71
2023/08/06 09:28:18;;;;;;;3.38;2.58;;;;;;;13.74;100.00;100565.00;5024327;28;20457;-71
2023/08/06 09:30:47;;;;;;;5.72;2.50;;;;;;;13.75;100.00;100569.31;5023544;28;20041;-71
2023/08/06 09:33:18;;;;;;;4.25;2.33;;;;;;;13.76;100.00;100565.63;5023226;28;20033;-71
2023/08/06 09:35:45;;;;;;;6.18;2.63;;;;;;;13.76;100.00;100570.97;5023768;28;20040;-71
2023/08/06 09:38:11;;;;;;;5.78;2.65;;;;;;;13.79;100.00;100574.00;5023477;28;20033;-71
2023/08/06 09:40:37;;;;;;;5.55;2.30;;;;;;;13.78;100.00;100572.38;5024023;28;20092;-71
2023/08/06 09:43:03;;;;;;;2.83;2.13;;;;;;;13.80;100.00;100575.63;5022829;28;20030;-72
2023/08/06 09:45:34;;;;;;;3.47;1.92;;;;;;;13.82;100.00;100584.28;5023942;28;20036;-71
2023/08/06 09:48:00;;;;;;;3.85;1.95;;;;;;;13.85;100.00;100583.00;5023692;28;20041;-71
2023/08/06 09:50:33;;;;;;;3.78;2.08;;;;;;;13.89;100.00;100580.72;5023274;28;20025;-70
2023/08/06 09:53:02;;;;;;;3.72;2.22;;;;;;;13.91;100.00;100590.19;5023356;28;20040;-72
2023/08/06 09:55:28;;;;;;;6.78;2.85;;;;;;;13.89;100.00;100589.56;5023711;28;20040;-72
2023/08/06 09:57:54;;;;;;;4.57;2.10;;;;;;;13.89;100.00;100594.94;5023396;28;20029;-71
2023/08/06 10:00:20;;;;;;;4.50;2.25;;;;;;;13.91;100.00;100602.72;5023268;28;20022;-70
2023/08/06 10:02:46;;;;;;;3.58;1.83;;;;;;;13.92;100.00;100607.88;5022514;28;20118;-71
2023/08/06 10:05:12;;;;;;;4.93;2.72;;;;;;;13.90;100.00;100593.06;5023473;28;20079;-70
2023/08/06 10:07:40;;;;;;;8.80;2.40;;;;;;;13.93;100.00;100597.97;5022311;28;20503;-71
2023/08/06 10:10:07;;;;;;;5.38;2.28;;;;;;;13.93;100.00;100604.16;5023170;28;20029;-70
2023/08/06 10:12:49;;;;;;;6.60;1.98;;;;;;;13.95;100.00;100603.94;5023260;28;20431;-70
2023/08/06 10:15:21;;;;;;;6.60;3.13;;;;;;;13.96;100.00;100605.56;5022935;28;20030;-72
2023/08/06 10:17:49;;;;;;;4.95;1.85;;;;;;;14.02;100.00;100616.22;5022968;28;20071;-71
2023/08/06 10:20:14;;;;;;;4.00;2.03;;;;;;;14.04;100.00;100610.63;5022359;28;20026;-71
2023/08/06 10:22:44;;;;;;;9.80;2.85;;;;;;;14.08;100.00;100608.31;5022580;28;20056;-72
2023/08/06 10:25:10;;;;;;;5.63;2.05;;;;;;;14.11;100.00;100610.53;5037871;28;20041;-69
2023/08/06 10:27:59;;;;;;;4.93;2.45;;;;;;;14.11;100.00;100607.88;5022758;28;20029;-72
2023/08/06 10:30:25;;;;;;;6.90;2.60;;;;;;;14.11;100.00;100616.72;5022789;28;20032;-71
2023/08/06 10:32:52;;;;;;;7.90;3.15;;;;;;;14.13;100.00;100617.31;5022984;28;20465;-71
2023/08/06 10:35:43;;;;;;;3.92;2.33;;;;;;;14.20;100.00;100611.84;5022932;28;20044;-70
2023/08/06 10:38:10;;;;;;;6.78;2.85;;;;;;;14.23;100.00;100611.44;5022034;28;20049;-73
2023/08/06 10:40:57;;;;;;;8.48;2.70;;;;;;;14.20;100.00;100617.22;5023362;28;20042;-72
2023/08/06 10:43:28;;;;;;;6.78;4.15;;;;;;;14.18;100.00;100616.66;5019032;28;20041;-72
2023/08/06 10:45:54;;;;;;;10.23;4.75;;;;;;;14.21;100.00;100619.69;5022979;28;20111;-70
2023/08/06 10:48:29;;;;;;;6.30;3.03;;;;;;;14.23;100.00;100633.69;5022138;28;20119;-72
2023/08/06 10:50:55;;;;;;;6.82;2.33;;;;;;;14.27;100.00;100626.00;5022822;28;20040;-71
2023/08/06 10:53:21;;;;;;;7.10;3.15;;;;;;;14.33;100.00;100618.91;5023381;28;20045;-72
2023/08/06 10:55:46;;;;;;;7.78;3.00;;;;;;;14.36;100.00;100623.84;5022167;28;20041;-70
2023/08/06 10:58:15;;;;;;;7.78;2.60;;;;;;;14.37;100.00;100634.34;5022807;28;20021;-70
2023/08/06 11:00:42;;;;;;;8.20;2.08;;;;;;;14.41;100.00;100635.53;5022818;28;20031;-70
2023/08/06 11:03:08;;;;;;;6.82;2.83;;;;;;;14.40;100.00;100633.06;5021615;28;20566;-71
2023/08/06 11:05:34;;;;;;;4.43;1.98;;;;;;;14.39;100.00;100644.84;5022466;28;20029;-71
2023/08/06 11:07:59;;;;;;;5.88;2.38;;;;;;;14.36;100.00;100631.91;5022841;28;20076;-71
2023/08/06 11:10:24;;;;;;;5.30;2.88;;;;;;;14.46;100.00;100646.41;5022430;28;20039;-71
2023/08/06 11:12:50;;;;;;;12.90;3.08;;;;;;;14.52;100.00;100650.03;5037512;28;20025;-70